sensor_id;sensor_type;location;lat;lon;timestamp;P1;durP1;ratioP1;P2;durP2;ratioP2
61322;SDS011;47203;48.428;11.974;2022-12-29T00:01:51;4.38;;;1.90;;
61322;SDS011;47203;48.428;11.974;2022-12-29T00:03:57;3.20;;;1.98;;
61322;SDS011;47203;48.428;11.974;2022-12-29T00:06:03;2.28;;;1.73;;
61322;SDS011;47203;48.428;11.974;2022-12-29T00:08:09;2.60;;;1.45;;
61322;SDS011;47203;48.428;11.974;2022-12-29T00:10:18;2.72;;;1.60;;
61322;SDS011;47203;48.428;11.974;2022-12-29T00:12:24;2.95;;;1.70;;
61322;SDS011;47203;48.428;11.974;2022-12-29T00:14:56;2.92;;;1.48;;
61322;SDS011;47203;48.428;11.974;2022-12-29T00:17:14;3.08;;;1.85;;
61322;SDS011;47203;48.428;11.974;2022-12-29T00:19:26;3.00;;;1.65;;
61322;SDS011;47203;48.428;11.974;2022-12-29T00:21:44;3.10;;;1.50;;
61322;SDS011;47203;48.428;11.974;2022-12-29T00:24:02;2.22;;;1.30;;
61322;SDS011;47203;48.428;11.974;2022-12-29T00:26:25;2.60;;;1.50;;
61322;SDS011;47203;48.428;11.974;2022-12-29T00:28:43;2.65;;;1.55;;
61322;SDS011;47203;48.428;11.974;2022-12-29T00:31:03;2.53;;;1.55;;
61322;SDS011;47203;48.428;11.974;2022-12-29T00:33:29;1.95;;;1.48;;
61322;SDS011;47203;48.428;11.974;2022-12-29T00:35:53;2.47;;;1.52;;
61322;SDS011;47203;48.428;11.974;2022-12-29T00:38:04;3.03;;;2.10;;
61322;SDS011;47203;48.428;11.974;2022-12-29T00:40:25;2.90;;;1.73;;
61322;SDS011;47203;48.428;11.974;2022-12-29T00:42:46;3.22;;;2.25;;
61322;SDS011;47203;48.428;11.974;2022-12-29T00:45:04;3.53;;;1.88;;
61322;SDS011;47203;48.428;11.974;2022-12-29T00:47:11;5.15;;;1.95;;
61322;SDS011;47203;48.428;11.974;2022-12-29T00:49:19;2.38;;;1.50;;
61322;SDS011;47203;48.428;11.974;2022-12-29T00:51:35;2.75;;;1.85;;
61322;SDS011;47203;48.428;11.974;2022-12-29T00:53:41;2.92;;;1.67;;
61322;SDS011;47203;48.428;11.974;2022-12-29T00:55:46;3.35;;;1.67;;
61322;SDS011;47203;48.428;11.974;2022-12-29T00:57:55;3.42;;;1.50;;
61322;SDS011;47203;48.428;11.974;2022-12-29T01:00:00;2.65;;;1.42;;
61322;SDS011;47203;48.428;11.974;2022-12-29T01:02:07;3.42;;;2.33;;
61322;SDS011;47203;48.428;11.974;2022-12-29T01:04:14;2.65;;;1.90;;
61322;SDS011;47203;48.428;11.974;2022-12-29T01:06:20;3.67;;;1.77;;
61322;SDS011;47203;48.428;11.974;2022-12-29T01:08:27;3.05;;;2.10;;
61322;SDS011;47203;48.428;11.974;2022-12-29T01:10:33;3.85;;;2.03;;
61322;SDS011;47203;48.428;11.974;2022-12-29T01:14:49;3.47;;;1.95;;
61322;SDS011;47203;48.428;11.974;2022-12-29T01:16:55;3.25;;;2.13;;
61322;SDS011;47203;48.428;11.974;2022-12-29T01:19:00;4.50;;;2.35;;
61322;SDS011;47203;48.428;11.974;2022-12-29T01:21:07;3.03;;;2.25;;
61322;SDS011;47203;48.428;11.974;2022-12-29T01:23:15;3.05;;;1.92;;
61322;SDS011;47203;48.428;11.974;2022-12-29T01:25:21;3.25;;;1.67;;
61322;SDS011;47203;48.428;11.974;2022-12-29T01:27:26;2.55;;;1.50;;
61322;SDS011;47203;48.428;11.974;2022-12-29T01:29:33;2.15;;;1.40;;
61322;SDS011;47203;48.428;11.974;2022-12-29T01:31:41;3.05;;;1.73;;
61322;SDS011;47203;48.428;11.974;2022-12-29T01:33:47;1.77;;;1.38;;
61322;SDS011;47203;48.428;11.974;2022-12-29T01:35:52;3.50;;;1.80;;
61322;SDS011;47203;48.428;11.974;2022-12-29T01:37:58;2.55;;;1.58;;
61322;SDS011;47203;48.428;11.974;2022-12-29T01:40:03;3.33;;;1.70;;
61322;SDS011;47203;48.428;11.974;2022-12-29T01:42:12;2.22;;;1.50;;
61322;SDS011;47203;48.428;11.974;2022-12-29T01:46:55;2.63;;;1.70;;
61322;SDS011;47203;48.428;11.974;2022-12-29T01:49:04;3.15;;;1.90;;
61322;SDS011;47203;48.428;11.974;2022-12-29T01:51:15;2.92;;;1.70;;
61322;SDS011;47203;48.428;11.974;2022-12-29T01:53:22;3.25;;;1.63;;
61322;SDS011;47203;48.428;11.974;2022-12-29T01:55:34;3.63;;;2.33;;
61322;SDS011;47203;48.428;11.974;2022-12-29T01:57:46;2.95;;;1.85;;
61322;SDS011;47203;48.428;11.974;2022-12-29T01:59:56;2.88;;;1.50;;
61322;SDS011;47203;48.428;11.974;2022-12-29T02:02:15;3.03;;;1.90;;
61322;SDS011;47203;48.428;11.974;2022-12-29T02:04:22;4.47;;;2.17;;
61322;SDS011;47203;48.428;11.974;2022-12-29T02:06:31;3.03;;;2.00;;
61322;SDS011;47203;48.428;11.974;2022-12-29T02:08:46;3.35;;;1.90;;
61322;SDS011;47203;48.428;11.974;2022-12-29T02:10:56;2.80;;;1.60;;
61322;SDS011;47203;48.428;11.974;2022-12-29T02:13:07;3.00;;;1.55;;
61322;SDS011;47203;48.428;11.974;2022-12-29T02:15:13;1.92;;;1.40;;
61322;SDS011;47203;48.428;11.974;2022-12-29T02:17:25;2.38;;;1.50;;
61322;SDS011;47203;48.428;11.974;2022-12-29T02:20:04;1.90;;;1.20;;
61322;SDS011;47203;48.428;11.974;2022-12-29T02:22:39;1.63;;;1.15;;
61322;SDS011;47203;48.428;11.974;2022-12-29T02:25:10;1.70;;;1.17;;
61322;SDS011;47203;48.428;11.974;2022-12-29T02:27:51;1.55;;;1.17;;
61322;SDS011;47203;48.428;11.974;2022-12-29T02:33:04;2.78;;;1.52;;
61322;SDS011;47203;48.428;11.974;2022-12-29T02:35:27;3.13;;;1.60;;
61322;SDS011;47203;48.428;11.974;2022-12-29T02:37:41;2.65;;;1.40;;
61322;SDS011;47203;48.428;11.974;2022-12-29T02:39:57;3.20;;;1.30;;
61322;SDS011;47203;48.428;11.974;2022-12-29T02:42:19;2.28;;;1.60;;
61322;SDS011;47203;48.428;11.974;2022-12-29T02:44:34;3.08;;;1.33;;
61322;SDS011;47203;48.428;11.974;2022-12-29T02:46:56;2.47;;;1.48;;
61322;SDS011;47203;48.428;11.974;2022-12-29T02:49:15;3.58;;;1.50;;
61322;SDS011;47203;48.428;11.974;2022-12-29T02:51:25;2.80;;;1.35;;
61322;SDS011;47203;48.428;11.974;2022-12-29T02:53:37;2.35;;;1.48;;
61322;SDS011;47203;48.428;11.974;2022-12-29T02:55:56;1.90;;;1.10;;
61322;SDS011;47203;48.428;11.974;2022-12-29T03:00:26;1.83;;;1.00;;
61322;SDS011;47203;48.428;11.974;2022-12-29T03:02:39;2.60;;;1.25;;
61322;SDS011;47203;48.428;11.974;2022-12-29T03:05:18;2.67;;;1.10;;
61322;SDS011;47203;48.428;11.974;2022-12-29T03:08:02;2.38;;;1.38;;
61322;SDS011;47203;48.428;11.974;2022-12-29T03:10:25;1.95;;;1.38;;
61322;SDS011;47203;48.428;11.974;2022-12-29T03:12:43;2.83;;;1.67;;
61322;SDS011;47203;48.428;11.974;2022-12-29T03:15:11;2.05;;;1.10;;
61322;SDS011;47203;48.428;11.974;2022-12-29T03:17:43;1.73;;;1.08;;
61322;SDS011;47203;48.428;11.974;2022-12-29T03:19:59;1.83;;;0.93;;
61322;SDS011;47203;48.428;11.974;2022-12-29T03:22:14;3.47;;;1.20;;
61322;SDS011;47203;48.428;11.974;2022-12-29T03:24:43;1.83;;;1.30;;
61322;SDS011;47203;48.428;11.974;2022-12-29T03:26:54;1.13;;;0.93;;
61322;SDS011;47203;48.428;11.974;2022-12-29T03:29:10;2.42;;;1.50;;
61322;SDS011;47203;48.428;11.974;2022-12-29T03:31:20;2.85;;;1.60;;
61322;SDS011;47203;48.428;11.974;2022-12-29T03:33:32;2.00;;;1.23;;
61322;SDS011;47203;48.428;11.974;2022-12-29T03:35:40;2.67;;;1.38;;
61322;SDS011;47203;48.428;11.974;2022-12-29T03:37:49;1.85;;;1.38;;
61322;SDS011;47203;48.428;11.974;2022-12-29T03:40:04;2.17;;;1.17;;
61322;SDS011;47203;48.428;11.974;2022-12-29T03:42:13;2.38;;;1.42;;
61322;SDS011;47203;48.428;11.974;2022-12-29T03:44:22;1.95;;;1.23;;
61322;SDS011;47203;48.428;11.974;2022-12-29T03:46:38;3.58;;;2.75;;
61322;SDS011;47203;48.428;11.974;2022-12-29T03:48:47;2.25;;;1.45;;
61322;SDS011;47203;48.428;11.974;2022-12-29T03:50:52;4.35;;;1.95;;
61322;SDS011;47203;48.428;11.974;2022-12-29T03:52:58;3.58;;;1.80;;
61322;SDS011;47203;48.428;11.974;2022-12-29T03:55:05;3.60;;;1.92;;
61322;SDS011;47203;48.428;11.974;2022-12-29T03:57:13;3.80;;;1.88;;
61322;SDS011;47203;48.428;11.974;2022-12-29T03:59:27;3.80;;;1.70;;
61322;SDS011;47203;48.428;11.974;2022-12-29T04:01:32;3.03;;;1.45;;
61322;SDS011;47203;48.428;11.974;2022-12-29T04:03:38;2.78;;;1.42;;
61322;SDS011;47203;48.428;11.974;2022-12-29T04:05:48;3.45;;;2.10;;
61322;SDS011;47203;48.428;11.974;2022-12-29T04:07:55;2.65;;;1.60;;
61322;SDS011;47203;48.428;11.974;2022-12-29T04:10:01;3.08;;;2.00;;
61322;SDS011;47203;48.428;11.974;2022-12-29T04:12:09;3.35;;;1.95;;
61322;SDS011;47203;48.428;11.974;2022-12-29T04:14:15;4.30;;;2.13;;
61322;SDS011;47203;48.428;11.974;2022-12-29T04:16:21;3.80;;;2.08;;
61322;SDS011;47203;48.428;11.974;2022-12-29T04:18:27;2.75;;;1.40;;
61322;SDS011;47203;48.428;11.974;2022-12-29T04:20:32;3.08;;;1.20;;
61322;SDS011;47203;48.428;11.974;2022-12-29T04:22:59;1.85;;;1.30;;
61322;SDS011;47203;48.428;11.974;2022-12-29T04:25:06;2.20;;;1.30;;
61322;SDS011;47203;48.428;11.974;2022-12-29T04:27:13;2.92;;;1.85;;
61322;SDS011;47203;48.428;11.974;2022-12-29T04:29:42;3.00;;;1.63;;
61322;SDS011;47203;48.428;11.974;2022-12-29T04:32:05;2.67;;;1.70;;
61322;SDS011;47203;48.428;11.974;2022-12-29T04:34:17;2.67;;;1.40;;
61322;SDS011;47203;48.428;11.974;2022-12-29T04:36:23;3.30;;;1.85;;
61322;SDS011;47203;48.428;11.974;2022-12-29T04:38:33;2.08;;;1.25;;
61322;SDS011;47203;48.428;11.974;2022-12-29T04:40:40;3.20;;;1.55;;
61322;SDS011;47203;48.428;11.974;2022-12-29T04:42:46;2.67;;;1.40;;
61322;SDS011;47203;48.428;11.974;2022-12-29T04:44:54;3.72;;;1.85;;
61322;SDS011;47203;48.428;11.974;2022-12-29T04:47:10;1.55;;;1.40;;
61322;SDS011;47203;48.428;11.974;2022-12-29T04:49:37;2.55;;;1.55;;
61322;SDS011;47203;48.428;11.974;2022-12-29T04:52:15;2.83;;;1.63;;
61322;SDS011;47203;48.428;11.974;2022-12-29T04:54:23;2.05;;;1.63;;
61322;SDS011;47203;48.428;11.974;2022-12-29T04:56:49;4.05;;;1.88;;
61322;SDS011;47203;48.428;11.974;2022-12-29T04:58:54;1.77;;;1.40;;
61322;SDS011;47203;48.428;11.974;2022-12-29T05:01:00;2.70;;;1.35;;
61322;SDS011;47203;48.428;11.974;2022-12-29T05:03:06;3.35;;;1.60;;
61322;SDS011;47203;48.428;11.974;2022-12-29T05:05:14;2.58;;;1.63;;
61322;SDS011;47203;48.428;11.974;2022-12-29T05:07:23;2.15;;;1.25;;
61322;SDS011;47203;48.428;11.974;2022-12-29T05:09:32;1.70;;;1.13;;
61322;SDS011;47203;48.428;11.974;2022-12-29T05:11:39;1.88;;;1.20;;
61322;SDS011;47203;48.428;11.974;2022-12-29T05:13:44;2.28;;;1.30;;
61322;SDS011;47203;48.428;11.974;2022-12-29T05:15:52;2.92;;;1.35;;
61322;SDS011;47203;48.428;11.974;2022-12-29T05:17:58;3.70;;;1.45;;
61322;SDS011;47203;48.428;11.974;2022-12-29T05:20:04;2.22;;;1.50;;
61322;SDS011;47203;48.428;11.974;2022-12-29T05:22:12;2.55;;;1.55;;
61322;SDS011;47203;48.428;11.974;2022-12-29T05:24:19;2.03;;;0.90;;
61322;SDS011;47203;48.428;11.974;2022-12-29T05:26:33;3.38;;;1.60;;
61322;SDS011;47203;48.428;11.974;2022-12-29T05:28:44;2.47;;;1.67;;
61322;SDS011;47203;48.428;11.974;2022-12-29T05:30:53;1.65;;;1.25;;
61322;SDS011;47203;48.428;11.974;2022-12-29T05:32:59;2.38;;;1.63;;
61322;SDS011;47203;48.428;11.974;2022-12-29T05:35:04;2.25;;;1.30;;
61322;SDS011;47203;48.428;11.974;2022-12-29T05:37:12;1.95;;;1.17;;
61322;SDS011;47203;48.428;11.974;2022-12-29T05:39:18;1.85;;;1.08;;
61322;SDS011;47203;48.428;11.974;2022-12-29T05:41:29;2.33;;;1.33;;
61322;SDS011;47203;48.428;11.974;2022-12-29T05:43:52;3.03;;;1.40;;
61322;SDS011;47203;48.428;11.974;2022-12-29T05:46:16;1.80;;;1.27;;
61322;SDS011;47203;48.428;11.974;2022-12-29T05:48:40;2.08;;;1.35;;
61322;SDS011;47203;48.428;11.974;2022-12-29T05:50:55;2.50;;;1.50;;
61322;SDS011;47203;48.428;11.974;2022-12-29T05:53:11;2.42;;;1.40;;
61322;SDS011;47203;48.428;11.974;2022-12-29T05:55:18;2.33;;;1.45;;
61322;SDS011;47203;48.428;11.974;2022-12-29T05:57:26;1.67;;;1.00;;
61322;SDS011;47203;48.428;11.974;2022-12-29T05:59:44;2.58;;;1.38;;
61322;SDS011;47203;48.428;11.974;2022-12-29T06:01:50;2.00;;;1.40;;
61322;SDS011;47203;48.428;11.974;2022-12-29T06:03:56;2.33;;;1.30;;
61322;SDS011;47203;48.428;11.974;2022-12-29T06:06:02;2.15;;;1.42;;
61322;SDS011;47203;48.428;11.974;2022-12-29T06:08:08;2.90;;;1.35;;
61322;SDS011;47203;48.428;11.974;2022-12-29T06:10:14;2.22;;;1.38;;
61322;SDS011;47203;48.428;11.974;2022-12-29T06:12:35;3.28;;;1.60;;
61322;SDS011;47203;48.428;11.974;2022-12-29T06:14:40;1.92;;;1.42;;
61322;SDS011;47203;48.428;11.974;2022-12-29T06:16:48;2.33;;;1.50;;
61322;SDS011;47203;48.428;11.974;2022-12-29T06:18:55;1.83;;;1.20;;
61322;SDS011;47203;48.428;11.974;2022-12-29T06:21:01;2.92;;;1.42;;
61322;SDS011;47203;48.428;11.974;2022-12-29T06:23:08;2.03;;;1.40;;
61322;SDS011;47203;48.428;11.974;2022-12-29T06:25:13;1.45;;;1.10;;
61322;SDS011;47203;48.428;11.974;2022-12-29T06:27:20;2.38;;;1.48;;
61322;SDS011;47203;48.428;11.974;2022-12-29T06:29:27;3.35;;;1.50;;
61322;SDS011;47203;48.428;11.974;2022-12-29T06:31:35;2.58;;;1.48;;
61322;SDS011;47203;48.428;11.974;2022-12-29T06:33:41;2.88;;;1.77;;
61322;SDS011;47203;48.428;11.974;2022-12-29T06:35:50;3.20;;;1.80;;
61322;SDS011;47203;48.428;11.974;2022-12-29T06:37:56;5.78;;;3.13;;
61322;SDS011;47203;48.428;11.974;2022-12-29T06:40:01;4.18;;;2.10;;
61322;SDS011;47203;48.428;11.974;2022-12-29T06:42:24;6.32;;;1.83;;
61322;SDS011;47203;48.428;11.974;2022-12-29T06:44:46;2.80;;;1.60;;
61322;SDS011;47203;48.428;11.974;2022-12-29T06:46:55;2.90;;;2.05;;
61322;SDS011;47203;48.428;11.974;2022-12-29T06:49:00;3.80;;;1.75;;
61322;SDS011;47203;48.428;11.974;2022-12-29T06:51:06;2.22;;;1.60;;
61322;SDS011;47203;48.428;11.974;2022-12-29T06:53:11;3.92;;;1.42;;
61322;SDS011;47203;48.428;11.974;2022-12-29T06:55:17;2.67;;;1.65;;
61322;SDS011;47203;48.428;11.974;2022-12-29T06:57:22;3.45;;;1.52;;
61322;SDS011;47203;48.428;11.974;2022-12-29T06:59:28;2.20;;;1.60;;
61322;SDS011;47203;48.428;11.974;2022-12-29T07:01:33;3.28;;;1.65;;
61322;SDS011;47203;48.428;11.974;2022-12-29T07:03:43;2.30;;;1.40;;
61322;SDS011;47203;48.428;11.974;2022-12-29T07:05:48;2.50;;;1.50;;
61322;SDS011;47203;48.428;11.974;2022-12-29T07:07:55;2.25;;;1.17;;
61322;SDS011;47203;48.428;11.974;2022-12-29T07:10:01;2.85;;;1.45;;
61322;SDS011;47203;48.428;11.974;2022-12-29T07:12:08;2.38;;;1.42;;
61322;SDS011;47203;48.428;11.974;2022-12-29T07:14:13;2.28;;;1.30;;
61322;SDS011;47203;48.428;11.974;2022-12-29T07:16:19;2.97;;;1.85;;
61322;SDS011;47203;48.428;11.974;2022-12-29T07:18:24;3.03;;;2.03;;
61322;SDS011;47203;48.428;11.974;2022-12-29T07:20:32;4.90;;;2.30;;
61322;SDS011;47203;48.428;11.974;2022-12-29T07:22:38;3.10;;;1.90;;
61322;SDS011;47203;48.428;11.974;2022-12-29T07:24:43;2.97;;;1.48;;
61322;SDS011;47203;48.428;11.974;2022-12-29T07:26:48;2.97;;;1.75;;
61322;SDS011;47203;48.428;11.974;2022-12-29T07:28:54;2.10;;;1.30;;
61322;SDS011;47203;48.428;11.974;2022-12-29T07:31:00;3.72;;;1.67;;
61322;SDS011;47203;48.428;11.974;2022-12-29T07:33:05;3.13;;;1.42;;
61322;SDS011;47203;48.428;11.974;2022-12-29T07:35:11;2.65;;;1.60;;
61322;SDS011;47203;48.428;11.974;2022-12-29T07:37:20;4.63;;;1.25;;
61322;SDS011;47203;48.428;11.974;2022-12-29T07:39:26;2.22;;;1.33;;
61322;SDS011;47203;48.428;11.974;2022-12-29T07:41:31;3.55;;;1.80;;
61322;SDS011;47203;48.428;11.974;2022-12-29T07:43:36;4.05;;;2.10;;
61322;SDS011;47203;48.428;11.974;2022-12-29T07:46:02;5.55;;;3.20;;
61322;SDS011;47203;48.428;11.974;2022-12-29T07:48:30;4.93;;;2.42;;
61322;SDS011;47203;48.428;11.974;2022-12-29T07:50:37;4.70;;;2.35;;
61322;SDS011;47203;48.428;11.974;2022-12-29T07:52:45;3.85;;;2.10;;
61322;SDS011;47203;48.428;11.974;2022-12-29T07:54:51;3.92;;;1.88;;
61322;SDS011;47203;48.428;11.974;2022-12-29T07:56:57;3.22;;;1.63;;
61322;SDS011;47203;48.428;11.974;2022-12-29T07:59:06;3.17;;;1.60;;
61322;SDS011;47203;48.428;11.974;2022-12-29T08:01:11;2.80;;;1.33;;
61322;SDS011;47203;48.428;11.974;2022-12-29T08:03:17;2.78;;;1.60;;
61322;SDS011;47203;48.428;11.974;2022-12-29T08:05:22;3.33;;;1.90;;
61322;SDS011;47203;48.428;11.974;2022-12-29T08:07:28;3.65;;;2.10;;
61322;SDS011;47203;48.428;11.974;2022-12-29T08:09:37;3.10;;;1.85;;
61322;SDS011;47203;48.428;11.974;2022-12-29T08:11:43;2.60;;;1.67;;
61322;SDS011;47203;48.428;11.974;2022-12-29T08:13:49;4.22;;;2.17;;
61322;SDS011;47203;48.428;11.974;2022-12-29T08:15:56;2.85;;;2.13;;
61322;SDS011;47203;48.428;11.974;2022-12-29T08:18:03;3.70;;;1.92;;
61322;SDS011;47203;48.428;11.974;2022-12-29T08:20:09;3.40;;;1.73;;
61322;SDS011;47203;48.428;11.974;2022-12-29T08:22:15;2.55;;;1.50;;
61322;SDS011;47203;48.428;11.974;2022-12-29T08:24:21;2.03;;;1.33;;
61322;SDS011;47203;48.428;11.974;2022-12-29T08:26:29;2.78;;;1.25;;
61322;SDS011;47203;48.428;11.974;2022-12-29T08:28:35;2.45;;;1.40;;
61322;SDS011;47203;48.428;11.974;2022-12-29T08:30:41;1.83;;;1.40;;
61322;SDS011;47203;48.428;11.974;2022-12-29T08:32:47;2.40;;;1.50;;
61322;SDS011;47203;48.428;11.974;2022-12-29T08:34:53;2.55;;;1.33;;
61322;SDS011;47203;48.428;11.974;2022-12-29T08:36:59;2.83;;;1.40;;
61322;SDS011;47203;48.428;11.974;2022-12-29T08:39:17;2.80;;;1.30;;
61322;SDS011;47203;48.428;11.974;2022-12-29T08:41:23;3.08;;;1.40;;
61322;SDS011;47203;48.428;11.974;2022-12-29T08:43:32;2.20;;;1.40;;
61322;SDS011;47203;48.428;11.974;2022-12-29T08:45:41;2.60;;;1.50;;
61322;SDS011;47203;48.428;11.974;2022-12-29T08:50:45;2.60;;;1.38;;
61322;SDS011;47203;48.428;11.974;2022-12-29T08:52:51;2.72;;;1.38;;
61322;SDS011;47203;48.428;11.974;2022-12-29T08:54:57;2.70;;;1.48;;
61322;SDS011;47203;48.428;11.974;2022-12-29T08:57:03;2.03;;;1.13;;
61322;SDS011;47203;48.428;11.974;2022-12-29T08:59:18;2.58;;;1.55;;
61322;SDS011;47203;48.428;11.974;2022-12-29T09:01:24;2.22;;;1.38;;
61322;SDS011;47203;48.428;11.974;2022-12-29T09:03:32;2.83;;;1.40;;
61322;SDS011;47203;48.428;11.974;2022-12-29T09:05:58;3.25;;;1.92;;
61322;SDS011;47203;48.428;11.974;2022-12-29T09:08:04;1.70;;;1.20;;
61322;SDS011;47203;48.428;11.974;2022-12-29T09:10:09;3.30;;;1.40;;
61322;SDS011;47203;48.428;11.974;2022-12-29T09:12:16;2.53;;;1.55;;
61322;SDS011;47203;48.428;11.974;2022-12-29T09:14:24;3.00;;;1.65;;
61322;SDS011;47203;48.428;11.974;2022-12-29T09:16:30;2.90;;;1.45;;
61322;SDS011;47203;48.428;11.974;2022-12-29T09:18:36;3.72;;;1.90;;
61322;SDS011;47203;48.428;11.974;2022-12-29T09:20:43;4.40;;;2.15;;
61322;SDS011;47203;48.428;11.974;2022-12-29T09:22:49;3.03;;;2.10;;
61322;SDS011;47203;48.428;11.974;2022-12-29T09:24:55;3.03;;;1.60;;
61322;SDS011;47203;48.428;11.974;2022-12-29T09:27:00;3.83;;;1.92;;
61322;SDS011;47203;48.428;11.974;2022-12-29T09:29:06;4.70;;;2.05;;
61322;SDS011;47203;48.428;11.974;2022-12-29T09:31:14;5.38;;;2.47;;
61322;SDS011;47203;48.428;11.974;2022-12-29T09:33:20;3.35;;;2.05;;
61322;SDS011;47203;48.428;11.974;2022-12-29T09:35:25;3.47;;;2.30;;
61322;SDS011;47203;48.428;11.974;2022-12-29T09:37:30;4.60;;;1.65;;
61322;SDS011;47203;48.428;11.974;2022-12-29T09:39:37;3.42;;;1.80;;
61322;SDS011;47203;48.428;11.974;2022-12-29T09:41:43;4.40;;;1.80;;
61322;SDS011;47203;48.428;11.974;2022-12-29T09:43:59;3.35;;;1.85;;
61322;SDS011;47203;48.428;11.974;2022-12-29T09:46:22;2.58;;;1.60;;
61322;SDS011;47203;48.428;11.974;2022-12-29T09:48:32;4.20;;;1.65;;
61322;SDS011;47203;48.428;11.974;2022-12-29T09:50:46;3.53;;;1.92;;
61322;SDS011;47203;48.428;11.974;2022-12-29T09:53:00;3.25;;;2.00;;
61322;SDS011;47203;48.428;11.974;2022-12-29T09:55:15;2.97;;;1.77;;
61322;SDS011;47203;48.428;11.974;2022-12-29T09:57:25;2.58;;;1.55;;
61322;SDS011;47203;48.428;11.974;2022-12-29T09:59:38;1.95;;;1.10;;
61322;SDS011;47203;48.428;11.974;2022-12-29T10:01:51;2.22;;;1.42;;
61322;SDS011;47203;48.428;11.974;2022-12-29T10:04:07;2.40;;;1.00;;
61322;SDS011;47203;48.428;11.974;2022-12-29T10:06:14;2.88;;;1.27;;
61322;SDS011;47203;48.428;11.974;2022-12-29T10:08:29;2.63;;;0.85;;
61322;SDS011;47203;48.428;11.974;2022-12-29T10:10:48;2.75;;;1.40;;
61322;SDS011;47203;48.428;11.974;2022-12-29T10:13:01;1.75;;;1.10;;
61322;SDS011;47203;48.428;11.974;2022-12-29T10:15:33;4.07;;;1.95;;
61322;SDS011;47203;48.428;11.974;2022-12-29T10:17:57;3.15;;;1.30;;
61322;SDS011;47203;48.428;11.974;2022-12-29T10:20:25;2.45;;;1.13;;
61322;SDS011;47203;48.428;11.974;2022-12-29T10:22:40;2.45;;;1.25;;
61322;SDS011;47203;48.428;11.974;2022-12-29T10:24:58;2.53;;;1.20;;
61322;SDS011;47203;48.428;11.974;2022-12-29T10:30:19;3.45;;;1.58;;
61322;SDS011;47203;48.428;11.974;2022-12-29T10:32:26;2.90;;;1.40;;
61322;SDS011;47203;48.428;11.974;2022-12-29T10:34:43;2.78;;;1.08;;
61322;SDS011;47203;48.428;11.974;2022-12-29T10:36:57;1.70;;;1.00;;
61322;SDS011;47203;48.428;11.974;2022-12-29T10:39:11;1.92;;;0.98;;
61322;SDS011;47203;48.428;11.974;2022-12-29T10:41:27;1.55;;;1.00;;
61322;SDS011;47203;48.428;11.974;2022-12-29T10:43:43;2.17;;;1.08;;
61322;SDS011;47203;48.428;11.974;2022-12-29T10:45:53;1.60;;;0.93;;
61322;SDS011;47203;48.428;11.974;2022-12-29T10:48:03;2.80;;;1.02;;
61322;SDS011;47203;48.428;11.974;2022-12-29T10:50:22;1.63;;;0.95;;
61322;SDS011;47203;48.428;11.974;2022-12-29T10:52:30;2.80;;;0.98;;
61322;SDS011;47203;48.428;11.974;2022-12-29T10:54:43;1.75;;;1.10;;
61322;SDS011;47203;48.428;11.974;2022-12-29T10:56:56;1.98;;;1.10;;
61322;SDS011;47203;48.428;11.974;2022-12-29T10:59:10;3.00;;;1.15;;
61322;SDS011;47203;48.428;11.974;2022-12-29T11:01:22;1.77;;;1.10;;
61322;SDS011;47203;48.428;11.974;2022-12-29T11:03:44;2.08;;;1.23;;
61322;SDS011;47203;48.428;11.974;2022-12-29T11:08:19;2.20;;;1.15;;
61322;SDS011;47203;48.428;11.974;2022-12-29T11:10:30;1.35;;;1.15;;
61322;SDS011;47203;48.428;11.974;2022-12-29T11:12:43;1.88;;;1.10;;
61322;SDS011;47203;48.428;11.974;2022-12-29T11:15:14;5.28;;;1.10;;
61322;SDS011;47203;48.428;11.974;2022-12-29T11:17:20;1.63;;;0.85;;
61322;SDS011;47203;48.428;11.974;2022-12-29T11:19:27;1.80;;;0.80;;
61322;SDS011;47203;48.428;11.974;2022-12-29T11:21:43;1.85;;;1.27;;
61322;SDS011;47203;48.428;11.974;2022-12-29T11:23:57;2.42;;;1.45;;
61322;SDS011;47203;48.428;11.974;2022-12-29T11:26:15;2.33;;;1.10;;
61322;SDS011;47203;48.428;11.974;2022-12-29T11:28:30;1.90;;;1.10;;
61322;SDS011;47203;48.428;11.974;2022-12-29T11:30:36;1.92;;;1.20;;
61322;SDS011;47203;48.428;11.974;2022-12-29T11:32:42;3.30;;;1.50;;
61322;SDS011;47203;48.428;11.974;2022-12-29T11:34:56;3.67;;;1.80;;
61322;SDS011;47203;48.428;11.974;2022-12-29T11:37:06;3.13;;;1.75;;
61322;SDS011;47203;48.428;11.974;2022-12-29T11:39:26;2.60;;;1.90;;
61322;SDS011;47203;48.428;11.974;2022-12-29T11:41:38;2.38;;;1.65;;
61322;SDS011;47203;48.428;11.974;2022-12-29T11:43:43;2.35;;;1.50;;
61322;SDS011;47203;48.428;11.974;2022-12-29T11:45:51;2.83;;;1.70;;
61322;SDS011;47203;48.428;11.974;2022-12-29T11:47:58;3.53;;;2.25;;
61322;SDS011;47203;48.428;11.974;2022-12-29T11:50:15;3.78;;;1.92;;
61322;SDS011;47203;48.428;11.974;2022-12-29T11:52:28;6.55;;;2.45;;
61322;SDS011;47203;48.428;11.974;2022-12-29T11:54:40;2.78;;;1.85;;
61322;SDS011;47203;48.428;11.974;2022-12-29T11:56:47;3.05;;;1.85;;
61322;SDS011;47203;48.428;11.974;2022-12-29T11:58:55;3.47;;;2.28;;
61322;SDS011;47203;48.428;11.974;2022-12-29T12:01:00;3.03;;;2.10;;
61322;SDS011;47203;48.428;11.974;2022-12-29T12:03:12;2.88;;;1.67;;
61322;SDS011;47203;48.428;11.974;2022-12-29T12:05:28;2.20;;;1.70;;
61322;SDS011;47203;48.428;11.974;2022-12-29T12:07:45;2.17;;;1.50;;
61322;SDS011;47203;48.428;11.974;2022-12-29T12:09:57;3.72;;;2.05;;
61322;SDS011;47203;48.428;11.974;2022-12-29T12:12:09;5.35;;;2.22;;
61322;SDS011;47203;48.428;11.974;2022-12-29T12:14:30;3.78;;;2.50;;
61322;SDS011;47203;48.428;11.974;2022-12-29T12:17:06;3.20;;;1.98;;
61322;SDS011;47203;48.428;11.974;2022-12-29T12:19:20;4.22;;;2.10;;
61322;SDS011;47203;48.428;11.974;2022-12-29T12:21:38;3.50;;;1.60;;
61322;SDS011;47203;48.428;11.974;2022-12-29T12:26:42;1.83;;;1.10;;
61322;SDS011;47203;48.428;11.974;2022-12-29T12:29:04;2.10;;;1.10;;
61322;SDS011;47203;48.428;11.974;2022-12-29T12:31:21;2.63;;;1.30;;
61322;SDS011;47203;48.428;11.974;2022-12-29T12:33:46;2.80;;;1.10;;
61322;SDS011;47203;48.428;11.974;2022-12-29T12:36:07;1.98;;;1.20;;
61322;SDS011;47203;48.428;11.974;2022-12-29T12:38:37;1.60;;;1.00;;
61322;SDS011;47203;48.428;11.974;2022-12-29T12:41:03;1.83;;;0.95;;
61322;SDS011;47203;48.428;11.974;2022-12-29T12:43:33;2.08;;;1.10;;
61322;SDS011;47203;48.428;11.974;2022-12-29T12:45:51;1.35;;;0.80;;
61322;SDS011;47203;48.428;11.974;2022-12-29T12:48:22;2.83;;;1.38;;
61322;SDS011;47203;48.428;11.974;2022-12-29T12:50:51;1.88;;;0.70;;
61322;SDS011;47203;48.428;11.974;2022-12-29T12:53:16;2.25;;;0.70;;
61322;SDS011;47203;48.428;11.974;2022-12-29T12:55:45;1.88;;;0.90;;
61322;SDS011;47203;48.428;11.974;2022-12-29T12:58:28;1.10;;;0.80;;
61322;SDS011;47203;48.428;11.974;2022-12-29T13:00:47;1.48;;;0.80;;
61322;SDS011;47203;48.428;11.974;2022-12-29T13:03:10;1.52;;;0.95;;
61322;SDS011;47203;48.428;11.974;2022-12-29T13:05:37;1.90;;;0.90;;
61322;SDS011;47203;48.428;11.974;2022-12-29T13:08:17;2.28;;;0.93;;
61322;SDS011;47203;48.428;11.974;2022-12-29T13:10:45;1.65;;;1.23;;
61322;SDS011;47203;48.428;11.974;2022-12-29T13:13:10;1.65;;;1.08;;
61322;SDS011;47203;48.428;11.974;2022-12-29T13:15:44;1.25;;;0.90;;
61322;SDS011;47203;48.428;11.974;2022-12-29T13:18:00;1.55;;;0.82;;
61322;SDS011;47203;48.428;11.974;2022-12-29T13:20:24;2.63;;;1.17;;
61322;SDS011;47203;48.428;11.974;2022-12-29T13:22:45;2.38;;;0.95;;
61322;SDS011;47203;48.428;11.974;2022-12-29T13:25:05;1.90;;;1.00;;
61322;SDS011;47203;48.428;11.974;2022-12-29T13:27:32;1.70;;;1.27;;